sensor_id;sensor_type;location;lat;lon;timestamp;pressure;altitude;pressure_sealevel;temperature;humidity
6942;BME280;3510;43.200;27.920;2023-01-01T00:01:15;102517.91;;;12.81;51.71
6942;BME280;3510;43.200;27.920;2023-01-01T00:03:43;102519.00;;;12.92;51.52
6942;BME280;3510;43.200;27.920;2023-01-01T00:06:15;102522.09;;;13.14;50.84
6942;BME280;3510;43.200;27.920;2023-01-01T00:11:41;102528.25;;;13.00;50.86
6942;BME280;3510;43.200;27.920;2023-01-01T00:14:12;102534.81;;;12.73;51.13
6942;BME280;3510;43.200;27.920;2023-01-01T00:16:39;102534.28;;;13.09;50.43
6942;BME280;3510;43.200;27.920;2023-01-01T00:19:13;102531.41;;;13.06;50.46
6942;BME280;3510;43.200;27.920;2023-01-01T00:21:40;102537.59;;;12.92;50.79
6942;BME280;3510;43.200;27.920;2023-01-01T00:24:09;102540.69;;;12.90;51.09
6942;BME280;3510;43.200;27.920;2023-01-01T00:26:39;102541.38;;;12.55;51.60
6942;BME280;3510;43.200;27.920;2023-01-01T00:29:06;102540.06;;;12.59;51.40
6942;BME280;3510;43.200;27.920;2023-01-01T00:31:34;102542.66;;;12.52;52.02
6942;BME280;3510;43.200;27.920;2023-01-01T00:34:05;102546.03;;;12.44;52.29
6942;BME280;3510;43.200;27.920;2023-01-01T00:36:55;102540.56;;;12.48;51.89
6942;BME280;3510;43.200;27.920;2023-01-01T00:39:22;102542.75;;;12.45;52.04
6942;BME280;3510;43.200;27.920;2023-01-01T00:45:11;102531.63;;;12.43;52.50
6942;BME280;3510;43.200;27.920;2023-01-01T00:47:38;102532.84;;;12.46;52.09
6942;BME280;3510;43.200;27.920;2023-01-01T00:50:06;102532.94;;;12.64;51.64
6942;BME280;3510;43.200;27.920;2023-01-01T00:52:36;102533.22;;;12.58;51.37
6942;BME280;3510;43.200;27.920;2023-01-01T00:55:08;102535.09;;;12.52;51.57
6942;BME280;3510;43.200;27.920;2023-01-01T00:57:36;102533.28;;;12.67;51.29
6942;BME280;3510;43.200;27.920;2023-01-01T01:00:13;102529.78;;;12.17;52.06
6942;BME280;3510;43.200;27.920;2023-01-01T01:02:40;102528.47;;;12.05;52.69
6942;BME280;3510;43.200;27.920;2023-01-01T01:05:12;102520.81;;;12.28;52.25
6942;BME280;3510;43.200;27.920;2023-01-01T01:07:40;102530.97;;;12.37;52.33
6942;BME280;3510;43.200;27.920;2023-01-01T01:10:08;102525.09;;;12.45;51.78
6942;BME280;3510;43.200;27.920;2023-01-01T01:12:36;102522.06;;;12.56;51.67
6942;BME280;3510;43.200;27.920;2023-01-01T01:15:03;102519.19;;;12.53;50.92
6942;BME280;3510;43.200;27.920;2023-01-01T01:17:31;102519.59;;;12.24;51.55
6942;BME280;3510;43.200;27.920;2023-01-01T01:19:58;102512.69;;;12.15;51.96
6942;BME280;3510;43.200;27.920;2023-01-01T01:22:24;102501.19;;;11.62;53.02
6942;BME280;3510;43.200;27.920;2023-01-01T01:24:53;102495.88;;;11.52;53.73
6942;BME280;3510;43.200;27.920;2023-01-01T01:27:20;102489.13;;;11.44;54.08
6942;BME280;3510;43.200;27.920;2023-01-01T01:29:46;102492.00;;;11.01;55.68
6942;BME280;3510;43.200;27.920;2023-01-01T01:32:14;102483.47;;;11.30;55.46
6942;BME280;3510;43.200;27.920;2023-01-01T01:34:41;102493.03;;;11.10;56.25
6942;BME280;3510;43.200;27.920;2023-01-01T01:37:07;102495.31;;;11.15;56.09
6942;BME280;3510;43.200;27.920;2023-01-01T01:39:34;102499.88;;;11.27;56.36
6942;BME280;3510;43.200;27.920;2023-01-01T01:42:02;102506.28;;;11.39;56.23
6942;BME280;3510;43.200;27.920;2023-01-01T01:44:52;102509.66;;;11.24;56.21
6942;BME280;3510;43.200;27.920;2023-01-01T01:47:20;102497.31;;;11.34;56.06
6942;BME280;3510;43.200;27.920;2023-01-01T01:49:48;102494.38;;;11.38;56.41
6942;BME280;3510;43.200;27.920;2023-01-01T01:52:17;102492.84;;;11.31;56.21
6942;BME280;3510;43.200;27.920;2023-01-01T01:54:45;102487.16;;;11.41;55.81
6942;BME280;3510;43.200;27.920;2023-01-01T01:57:13;102496.34;;;11.02;56.94
6942;BME280;3510;43.200;27.920;2023-01-01T01:59:41;102493.09;;;11.03;56.53
6942;BME280;3510;43.200;27.920;2023-01-01T02:02:13;102490.53;;;11.26;56.02
6942;BME280;3510;43.200;27.920;2023-01-01T02:04:41;102495.44;;;11.01;56.63
6942;BME280;3510;43.200;27.920;2023-01-01T02:07:08;102498.63;;;11.07;56.67
6942;BME280;3510;43.200;27.920;2023-01-01T02:09:34;102506.63;;;10.96;56.85
6942;BME280;3510;43.200;27.920;2023-01-01T02:12:01;102502.31;;;10.72;57.07
6942;BME280;3510;43.200;27.920;2023-01-01T02:14:29;102494.66;;;11.09;56.06
6942;BME280;3510;43.200;27.920;2023-01-01T02:16:58;102486.06;;;11.23;55.49
6942;BME280;3510;43.200;27.920;2023-01-01T02:19:35;102486.47;;;10.96;55.87
6942;BME280;3510;43.200;27.920;2023-01-01T02:22:05;102490.44;;;11.17;55.54
6942;BME280;3510;43.200;27.920;2023-01-01T02:24:38;102478.94;;;11.35;55.01
6942;BME280;3510;43.200;27.920;2023-01-01T02:27:09;102485.69;;;11.27;55.05
6942;BME280;3510;43.200;27.920;2023-01-01T02:29:43;102475.72;;;11.13;55.06
6942;BME280;3510;43.200;27.920;2023-01-01T02:32:11;102486.22;;;10.79;55.73
6942;BME280;3510;43.200;27.920;2023-01-01T02:34:41;102475.72;;;11.13;55.21
6942;BME280;3510;43.200;27.920;2023-01-01T02:37:09;102480.47;;;11.42;54.37
6942;BME280;3510;43.200;27.920;2023-01-01T02:39:38;102488.72;;;11.09;55.17
6942;BME280;3510;43.200;27.920;2023-01-01T02:42:07;102485.13;;;11.07;55.17
6942;BME280;3510;43.200;27.920;2023-01-01T02:44:34;102482.25;;;11.27;54.51
6942;BME280;3510;43.200;27.920;2023-01-01T02:47:07;102480.94;;;11.53;53.82
6942;BME280;3510;43.200;27.920;2023-01-01T02:49:35;102479.03;;;11.44;54.18
6942;BME280;3510;43.200;27.920;2023-01-01T02:52:05;102481.56;;;11.44;53.99
6942;BME280;3510;43.200;27.920;2023-01-01T02:54:36;102490.00;;;11.44;53.77
6942;BME280;3510;43.200;27.920;2023-01-01T02:57:07;102488.03;;;11.42;53.47
6942;BME280;3510;43.200;27.920;2023-01-01T02:59:40;102489.78;;;11.11;54.27
6942;BME280;3510;43.200;27.920;2023-01-01T03:02:28;102487.50;;;11.60;53.40
6942;BME280;3510;43.200;27.920;2023-01-01T03:05:07;102485.16;;;11.23;54.05
6942;BME280;3510;43.200;27.920;2023-01-01T03:07:39;102491.41;;;10.87;55.01
6942;BME280;3510;43.200;27.920;2023-01-01T03:10:08;102492.75;;;11.00;54.72
6942;BME280;3510;43.200;27.920;2023-01-01T03:12:41;102484.25;;;10.83;55.20
6942;BME280;3510;43.200;27.920;2023-01-01T03:15:11;102477.09;;;10.79;55.66
6942;BME280;3510;43.200;27.920;2023-01-01T03:17:43;102481.53;;;11.05;54.89
6942;BME280;3510;43.200;27.920;2023-01-01T03:20:14;102472.44;;;10.98;55.12
6942;BME280;3510;43.200;27.920;2023-01-01T03:22:43;102474.75;;;11.20;54.49
6942;BME280;3510;43.200;27.920;2023-01-01T03:25:11;102467.38;;;11.21;54.22
6942;BME280;3510;43.200;27.920;2023-01-01T03:27:40;102474.41;;;11.39;54.28
6942;BME280;3510;43.200;27.920;2023-01-01T03:30:08;102467.72;;;11.40;54.22
6942;BME280;3510;43.200;27.920;2023-01-01T03:32:37;102473.84;;;11.19;54.49
6942;BME280;3510;43.200;27.920;2023-01-01T03:35:24;102469.75;;;11.35;54.03
6942;BME280;3510;43.200;27.920;2023-01-01T03:37:52;102475.59;;;11.27;54.49
6942;BME280;3510;43.200;27.920;2023-01-01T03:40:21;102469.44;;;11.48;53.90
6942;BME280;3510;43.200;27.920;2023-01-01T03:42:48;102484.56;;;11.64;53.47
6942;BME280;3510;43.200;27.920;2023-01-01T03:45:17;102482.03;;;11.87;52.76
6942;BME280;3510;43.200;27.920;2023-01-01T03:47:45;102478.47;;;11.78;53.09
6942;BME280;3510;43.200;27.920;2023-01-01T03:50:12;102485.56;;;11.57;53.09
6942;BME280;3510;43.200;27.920;2023-01-01T03:52:42;102488.16;;;11.82;52.87
6942;BME280;3510;43.200;27.920;2023-01-01T03:55:14;102484.41;;;11.47;53.41
6942;BME280;3510;43.200;27.920;2023-01-01T03:57:44;102493.00;;;11.33;53.84
6942;BME280;3510;43.200;27.920;2023-01-01T04:00:16;102491.91;;;11.31;53.77
6942;BME280;3510;43.200;27.920;2023-01-01T04:02:44;102492.16;;;11.25;53.54
6942;BME280;3510;43.200;27.920;2023-01-01T04:05:14;102490.06;;;10.98;53.99
6942;BME280;3510;43.200;27.920;2023-01-01T04:07:42;102501.44;;;10.95;54.34
6942;BME280;3510;43.200;27.920;2023-01-01T04:10:09;102504.44;;;10.76;54.64
6942;BME280;3510;43.200;27.920;2023-01-01T04:12:45;102503.25;;;10.88;54.12
6942;BME280;3510;43.200;27.920;2023-01-01T04:15:13;102508.41;;;10.74;54.58
6942;BME280;3510;43.200;27.920;2023-01-01T04:17:39;102505.03;;;10.89;54.76
6942;BME280;3510;43.200;27.920;2023-01-01T04:20:06;102506.81;;;10.98;54.48
6942;BME280;3510;43.200;27.920;2023-01-01T04:22:33;102511.72;;;11.12;54.56
6942;BME280;3510;43.200;27.920;2023-01-01T04:25:02;102518.03;;;11.08;54.62
6942;BME280;3510;43.200;27.920;2023-01-01T04:27:29;102507.91;;;10.93;55.32
6942;BME280;3510;43.200;27.920;2023-01-01T04:29:55;102514.16;;;10.73;55.55
6942;BME280;3510;43.200;27.920;2023-01-01T04:32:22;102521.06;;;10.60;55.96
6942;BME280;3510;43.200;27.920;2023-01-01T04:34:49;102519.34;;;10.45;56.73
6942;BME280;3510;43.200;27.920;2023-01-01T04:37:15;102485.56;;;10.50;55.99
6942;BME280;3510;43.200;27.920;2023-01-01T04:39:42;102516.19;;;10.24;56.58
6942;BME280;3510;43.200;27.920;2023-01-01T04:42:10;102520.50;;;10.32;56.86
6942;BME280;3510;43.200;27.920;2023-01-01T04:44:37;102525.81;;;10.50;56.17
6942;BME280;3510;43.200;27.920;2023-01-01T04:47:04;102530.94;;;10.65;55.98
6942;BME280;3510;43.200;27.920;2023-01-01T04:49:31;102524.72;;;10.55;55.70
6942;BME280;3510;43.200;27.920;2023-01-01T04:51:58;102528.00;;;10.77;55.37
6942;BME280;3510;43.200;27.920;2023-01-01T04:54:25;102526.97;;;10.68;55.51
6942;BME280;3510;43.200;27.920;2023-01-01T04:56:51;102533.22;;;10.71;55.53
6942;BME280;3510;43.200;27.920;2023-01-01T04:59:21;102528.31;;;10.57;55.88
6942;BME280;3510;43.200;27.920;2023-01-01T05:01:48;102526.72;;;10.80;55.00
6942;BME280;3510;43.200;27.920;2023-01-01T05:04:15;102528.91;;;11.00;54.12
6942;BME280;3510;43.200;27.920;2023-01-01T05:06:42;102519.88;;;10.79;54.21
6942;BME280;3510;43.200;27.920;2023-01-01T05:09:09;102530.53;;;10.39;55.51
6942;BME280;3510;43.200;27.920;2023-01-01T05:11:36;102522.22;;;10.78;54.52
6942;BME280;3510;43.200;27.920;2023-01-01T05:14:03;102524.44;;;10.68;54.91
6942;BME280;3510;43.200;27.920;2023-01-01T05:16:32;102532.53;;;10.42;55.52
6942;BME280;3510;43.200;27.920;2023-01-01T05:18:59;102527.88;;;10.68;55.37
6942;BME280;3510;43.200;27.920;2023-01-01T05:21:27;102532.66;;;10.51;55.78
6942;BME280;3510;43.200;27.920;2023-01-01T05:23:56;102534.31;;;10.73;55.20
6942;BME280;3510;43.200;27.920;2023-01-01T05:26:24;102528.78;;;10.69;55.56
6942;BME280;3510;43.200;27.920;2023-01-01T05:28:53;102534.72;;;10.92;54.92
6942;BME280;3510;43.200;27.920;2023-01-01T05:31:21;102517.94;;;11.00;54.79
6942;BME280;3510;43.200;27.920;2023-01-01T05:33:49;102522.44;;;11.02;54.69
6942;BME280;3510;43.200;27.920;2023-01-01T05:36:18;102517.66;;;11.12;54.69
6942;BME280;3510;43.200;27.920;2023-01-01T05:38:45;102521.28;;;11.30;54.00
6942;BME280;3510;43.200;27.920;2023-01-01T05:41:12;102528.84;;;11.30;53.74
6942;BME280;3510;43.200;27.920;2023-01-01T05:43:39;102540.69;;;11.38;53.72
6942;BME280;3510;43.200;27.920;2023-01-01T05:46:07;102532.97;;;11.30;53.56
6942;BME280;3510;43.200;27.920;2023-01-01T05:48:34;102535.97;;;11.19;53.67
6942;BME280;3510;43.200;27.920;2023-01-01T05:51:03;102529.13;;;11.18;53.72
6942;BME280;3510;43.200;27.920;2023-01-01T05:53:31;102529.09;;;11.02;54.20
6942;BME280;3510;43.200;27.920;2023-01-01T05:55:58;102541.88;;;10.73;54.63
6942;BME280;3510;43.200;27.920;2023-01-01T05:58:25;102532.53;;;10.72;54.84
6942;BME280;3510;43.200;27.920;2023-01-01T06:00:52;102535.13;;;10.58;55.34
6942;BME280;3510;43.200;27.920;2023-01-01T06:03:19;102531.53;;;10.56;55.21
6942;BME280;3510;43.200;27.920;2023-01-01T06:05:46;102531.53;;;10.56;55.23
6942;BME280;3510;43.200;27.920;2023-01-01T06:08:14;102507.13;;;10.48;55.19
6942;BME280;3510;43.200;27.920;2023-01-01T06:10:41;102537.75;;;10.36;55.95
6942;BME280;3510;43.200;27.920;2023-01-01T06:13:07;102537.91;;;10.38;55.59
6942;BME280;3510;43.200;27.920;2023-01-01T06:15:34;102549.19;;;10.49;55.78
6942;BME280;3510;43.200;27.920;2023-01-01T06:18:01;102545.63;;;10.47;55.45
6942;BME280;3510;43.200;27.920;2023-01-01T06:20:27;102553.13;;;10.54;55.59
6942;BME280;3510;43.200;27.920;2023-01-01T06:22:55;102551.50;;;10.54;55.62
6942;BME280;3510;43.200;27.920;2023-01-01T06:25:23;102546.59;;;10.63;55.02
6942;BME280;3510;43.200;27.920;2023-01-01T06:27:50;102552.56;;;10.56;55.35
6942;BME280;3510;43.200;27.920;2023-01-01T06:30:16;102553.81;;;10.53;55.32
6942;BME280;3510;43.200;27.920;2023-01-01T06:32:43;102549.88;;;10.55;55.02
6942;BME280;3510;43.200;27.920;2023-01-01T06:35:10;102556.31;;;10.90;54.88
6942;BME280;3510;43.200;27.920;2023-01-01T06:37:37;102555.22;;;10.95;54.62
6942;BME280;3510;43.200;27.920;2023-01-01T06:40:04;102564.84;;;10.83;54.62
6942;BME280;3510;43.200;27.920;2023-01-01T06:42:32;102549.41;;;11.26;53.81
6942;BME280;3510;43.200;27.920;2023-01-01T06:44:59;102559.41;;;11.33;53.77
6942;BME280;3510;43.200;27.920;2023-01-01T06:47:26;102557.19;;;11.44;53.20
6942;BME280;3510;43.200;27.920;2023-01-01T06:49:52;102551.44;;;11.60;52.76
6942;BME280;3510;43.200;27.920;2023-01-01T06:52:19;102566.59;;;11.37;53.64
6942;BME280;3510;43.200;27.920;2023-01-01T06:54:46;102559.00;;;11.60;53.12
6942;BME280;3510;43.200;27.920;2023-01-01T06:57:13;102558.94;;;11.91;52.15
6942;BME280;3510;43.200;27.920;2023-01-01T06:59:41;102572.59;;;11.93;51.78
6942;BME280;3510;43.200;27.920;2023-01-01T07:02:08;102564.53;;;12.04;51.27
6942;BME280;3510;43.200;27.920;2023-01-01T07:04:35;102563.91;;;11.98;51.20
6942;BME280;3510;43.200;27.920;2023-01-01T07:07:02;102565.66;;;11.83;51.50
6942;BME280;3510;43.200;27.920;2023-01-01T07:09:29;102570.72;;;11.60;52.49
6942;BME280;3510;43.200;27.920;2023-01-01T07:11:56;102566.41;;;11.59;52.78
6942;BME280;3510;43.200;27.920;2023-01-01T07:14:23;102569.19;;;11.69;52.48
6942;BME280;3510;43.200;27.920;2023-01-01T07:16:51;102574.31;;;11.78;52.52
6942;BME280;3510;43.200;27.920;2023-01-01T07:19:19;102573.81;;;11.96;52.64
6942;BME280;3510;43.200;27.920;2023-01-01T07:21:49;102575.78;;;12.15;51.95
6942;BME280;3510;43.200;27.920;2023-01-01T07:24:17;102550.22;;;12.11;51.73
6942;BME280;3510;43.200;27.920;2023-01-01T07:26:44;102564.63;;;11.97;52.55
6942;BME280;3510;43.200;27.920;2023-01-01T07:29:12;102543.28;;;12.33;51.64
6942;BME280;3510;43.200;27.920;2023-01-01T07:31:40;102550.13;;;12.19;51.70
6942;BME280;3510;43.200;27.920;2023-01-01T07:34:13;102569.09;;;12.71;50.79
6942;BME280;3510;43.200;27.920;2023-01-01T07:36:40;102566.81;;;13.06;50.55
6942;BME280;3510;43.200;27.920;2023-01-01T07:39:07;102565.34;;;12.83;50.63
6942;BME280;3510;43.200;27.920;2023-01-01T07:41:34;102567.81;;;12.99;50.12
6942;BME280;3510;43.200;27.920;2023-01-01T07:44:01;102569.16;;;13.04;49.94
6942;BME280;3510;43.200;27.920;2023-01-01T07:46:27;102569.94;;;13.28;49.32
6942;BME280;3510;43.200;27.920;2023-01-01T07:48:54;102570.25;;;13.15;49.62
6942;BME280;3510;43.200;27.920;2023-01-01T07:51:23;102574.19;;;13.20;49.70
6942;BME280;3510;43.200;27.920;2023-01-01T07:53:49;102573.78;;;13.66;49.15
6942;BME280;3510;43.200;27.920;2023-01-01T07:56:16;102539.56;;;13.03;49.54
6942;BME280;3510;43.200;27.920;2023-01-01T07:58:45;102522.72;;;13.62;48.44
6942;BME280;3510;43.200;27.920;2023-01-01T08:01:13;102579.34;;;13.97;48.53
6942;BME280;3510;43.200;27.920;2023-01-01T08:03:40;102579.69;;;14.35;47.33
6942;BME280;3510;43.200;27.920;2023-01-01T08:06:08;102589.03;;;14.01;48.86
6942;BME280;3510;43.200;27.920;2023-01-01T08:08:37;102585.94;;;14.12;48.71
6942;BME280;3510;43.200;27.920;2023-01-01T08:11:04;102586.56;;;14.36;48.34
6942;BME280;3510;43.200;27.920;2023-01-01T08:13:31;102595.50;;;14.32;48.29
6942;BME280;3510;43.200;27.920;2023-01-01T08:16:00;102574.34;;;14.06;49.12
6942;BME280;3510;43.200;27.920;2023-01-01T08:18:28;102577.56;;;13.96;49.38
6942;BME280;3510;43.200;27.920;2023-01-01T08:20:55;102592.00;;;13.97;49.06
6942;BME280;3510;43.200;27.920;2023-01-01T08:23:24;102511.22;;;13.39;49.69
6942;BME280;3510;43.200;27.920;2023-01-01T08:25:53;102567.63;;;14.23;49.02
6942;BME280;3510;43.200;27.920;2023-01-01T08:28:23;102506.34;;;13.58;49.58
6942;BME280;3510;43.200;27.920;2023-01-01T08:30:54;102542.88;;;14.03;48.95
6942;BME280;3510;43.200;27.920;2023-01-01T08:33:35;102583.25;;;14.19;49.37
6942;BME280;3510;43.200;27.920;2023-01-01T08:36:05;102591.59;;;14.18;49.57
6942;BME280;3510;43.200;27.920;2023-01-01T08:38:47;102550.34;;;14.02;48.81
6942;BME280;3510;43.200;27.920;2023-01-01T08:57:22;102540.19;;;16.08;44.70
6942;BME280;3510;43.200;27.920;2023-01-01T09:00:04;102546.72;;;16.14;44.69
6942;BME280;3510;43.200;27.920;2023-01-01T09:02:45;102584.59;;;16.59;43.87
6942;BME280;3510;43.200;27.920;2023-01-01T09:05:26;102539.16;;;16.06;44.41
6942;BME280;3510;43.200;27.920;2023-01-01T09:08:07;102584.03;;;16.53;43.44
6942;BME280;3510;43.200;27.920;2023-01-01T09:10:51;102549.03;;;16.21;43.77
6942;BME280;3510;43.200;27.920;2023-01-01T09:29:13;102550.06;;;19.06;38.94
6942;BME280;3510;43.200;27.920;2023-01-01T09:31:54;102565.75;;;18.79;39.11
6942;BME280;3510;43.200;27.920;2023-01-01T09:34:35;102475.72;;;18.70;38.66
6942;BME280;3510;43.200;27.920;2023-01-01T09:37:02;102550.56;;;19.80;38.02
6942;BME280;3510;43.200;27.920;2023-01-01T09:39:29;102521.78;;;19.37;38.01
6942;BME280;3510;43.200;27.920;2023-01-01T09:42:25;102550.09;;;20.08;37.31
6942;BME280;3510;43.200;27.920;2023-01-01T09:51:49;102545.06;;;20.21;37.17
6942;BME280;3510;43.200;27.920;2023-01-01T09:54:26;102543.84;;;20.27;37.23
6942;BME280;3510;43.200;27.920;2023-01-01T09:57:12;102519.97;;;20.03;37.67
6942;BME280;3510;43.200;27.920;2023-01-01T09:59:53;102541.41;;;20.05;38.03
6942;BME280;3510;43.200;27.920;2023-01-01T10:02:34;102502.13;;;20.75;36.40
6942;BME280;3510;43.200;27.920;2023-01-01T10:05:17;102508.41;;;20.32;37.17
6942;BME280;3510;43.200;27.920;2023-01-01T10:07:54;102531.75;;;20.25;37.49
6942;BME280;3510;43.200;27.920;2023-01-01T10:10:34;102508.50;;;20.45;36.81
6942;BME280;3510;43.200;27.920;2023-01-01T10:13:07;102513.94;;;20.38;36.78
6942;BME280;3510;43.200;27.920;2023-01-01T10:15:46;102527.41;;;20.47;36.84
6942;BME280;3510;43.200;27.920;2023-01-01T10:18:20;102523.13;;;21.20;35.71
6942;BME280;3510;43.200;27.920;2023-01-01T10:20:56;102498.94;;;20.66;36.13
6942;BME280;3510;43.200;27.920;2023-01-01T10:23:30;102518.38;;;20.88;36.15
6942;BME280;3510;43.200;27.920;2023-01-01T10:26:02;102501.94;;;20.97;36.13
6942;BME280;3510;43.200;27.920;2023-01-01T10:28:34;102514.72;;;21.59;34.97
6942;BME280;3510;43.200;27.920;2023-01-01T10:31:10;102512.16;;;21.09;35.62
6942;BME280;3510;43.200;27.920;2023-01-01T10:33:40;102505.31;;;21.21;35.46
6942;BME280;3510;43.200;27.920;2023-01-01T10:36:08;102501.94;;;21.34;35.17
6942;BME280;3510;43.200;27.920;2023-01-01T10:38:38;102499.22;;;21.44;34.66
6942;BME280;3510;43.200;27.920;2023-01-01T10:41:08;102501.44;;;21.15;35.18
6942;BME280;3510;43.200;27.920;2023-01-01T10:43:37;102457.56;;;21.22;34.48
6942;BME280;3510;43.200;27.920;2023-01-01T10:46:05;102460.25;;;21.12;34.43
6942;BME280;3510;43.200;27.920;2023-01-01T10:48:32;102489.34;;;21.37;34.19
6942;BME280;3510;43.200;27.920;2023-01-01T10:51:02;102488.91;;;21.56;34.16
6942;BME280;3510;43.200;27.920;2023-01-01T10:53:31;102477.56;;;21.53;33.97
6942;BME280;3510;43.200;27.920;2023-01-01T10:56:01;102481.06;;;22.46;32.56
6942;BME280;3510;43.200;27.920;2023-01-01T10:58:36;102474.06;;;23.13;31.37
6942;BME280;3510;43.200;27.920;2023-01-01T11:01:04;102478.34;;;22.71;31.85
6942;BME280;3510;43.200;27.920;2023-01-01T11:03:32;102470.19;;;22.91;31.52
6942;BME280;3510;43.200;27.920;2023-01-01T11:06:21;102459.03;;;22.50;32.16
6942;BME280;3510;43.200;27.920;2023-01-01T11:08:50;102460.94;;;22.39;32.29
6942;BME280;3510;43.200;27.920;2023-01-01T11:11:26;102471.56;;;23.72;30.79
6942;BME280;3510;43.200;27.920;2023-01-01T11:13:55;102472.59;;;24.05;31.33
6942;BME280;3510;43.200;27.920;2023-01-01T11:16:24;102441.00;;;24.08;30.91
6942;BME280;3510;43.200;27.920;2023-01-01T11:19:00;102467.50;;;24.22;30.83
6942;BME280;3510;43.200;27.920;2023-01-01T11:21:28;102472.38;;;24.63;30.27
6942;BME280;3510;43.200;27.920;2023-01-01T11:24:14;102470.91;;;24.37;31.55
6942;BME280;3510;43.200;27.920;2023-01-01T11:26:44;102446.25;;;23.95;32.75
6942;BME280;3510;43.200;27.920;2023-01-01T11:29:24;102467.22;;;23.71;33.86
6942;BME280;3510;43.200;27.920;2023-01-01T11:31:52;102475.16;;;23.61;34.63
6942;BME280;3510;43.200;27.920;2023-01-01T11:34:28;102472.59;;;24.05;33.99
6942;BME280;3510;43.200;27.920;2023-01-01T11:37:16;102475.66;;;22.41;36.27
6942;BME280;3510;43.200;27.920;2023-01-01T11:39:48;102421.91;;;20.75;37.52
6942;BME280;3510;43.200;27.920;2023-01-01T11:42:41;102444.97;;;21.25;37.98
6942;BME280;3510;43.200;27.920;2023-01-01T11:45:25;102467.44;;;20.67;39.81
6942;BME280;3510;43.200;27.920;2023-01-01T11:47:56;102472.59;;;20.44;40.63
6942;BME280;3510;43.200;27.920;2023-01-01T11:50:28;102464.34;;;20.48;40.53
6942;BME280;3510;43.200;27.920;2023-01-01T11:52:57;102469.50;;;20.01;41.13
6942;BME280;3510;43.200;27.920;2023-01-01T11:55:36;102458.22;;;20.58;39.71
6942;BME280;3510;43.200;27.920;2023-01-01T11:58:13;102430.63;;;20.90;38.78
6942;BME280;3510;43.200;27.920;2023-01-01T12:00:42;102444.84;;;20.98;38.91
6942;BME280;3510;43.200;27.920;2023-01-01T12:03:18;102463.97;;;21.03;39.44
6942;BME280;3510;43.200;27.920;2023-01-01T12:05:51;102442.84;;;21.19;38.93
6942;BME280;3510;43.200;27.920;2023-01-01T12:08:24;102473.44;;;21.30;39.50
6942;BME280;3510;43.200;27.920;2023-01-01T12:10:57;102401.28;;;19.88;41.82
6942;BME280;3510;43.200;27.920;2023-01-01T12:13:29;102454.81;;;19.98;42.55
6942;BME280;3510;43.200;27.920;2023-01-01T12:16:05;102394.06;;;19.71;42.03
6942;BME280;3510;43.200;27.920;2023-01-01T12:18:41;102465.47;;;20.28;41.25
6942;BME280;3510;43.200;27.920;2023-01-01T12:21:16;102442.41;;;20.03;40.75
6942;BME280;3510;43.200;27.920;2023-01-01T12:23:45;102460.56;;;20.31;40.21
6942;BME280;3510;43.200;27.920;2023-01-01T12:26:18;102456.53;;;20.46;39.26
6942;BME280;3510;43.200;27.920;2023-01-01T12:29:04;102462.13;;;20.52;38.16
6942;BME280;3510;43.200;27.920;2023-01-01T12:31:41;102427.69;;;21.22;36.50
6942;BME280;3510;43.200;27.920;2023-01-01T12:34:14;102413.81;;;21.19;35.78
6942;BME280;3510;43.200;27.920;2023-01-01T12:37:00;102440.13;;;21.94;34.79
6942;BME280;3510;43.200;27.920;2023-01-01T12:42:40;102447.56;;;22.58;33.97
6942;BME280;3510;43.200;27.920;2023-01-01T12:45:36;102457.84;;;21.26;36.05
6942;BME280;3510;43.200;27.920;2023-01-01T12:48:20;102422.09;;;20.53;36.55
6942;BME280;3510;43.200;27.920;2023-01-01T12:50:59;102442.44;;;20.28;37.86
6942;BME280;3510;43.200;27.920;2023-01-01T12:53:33;102457.03;;;20.29;37.82
6942;BME280;3510;43.200;27.920;2023-01-01T12:56:23;102457.69;;;20.26;37.89
6942;BME280;3510;43.200;27.920;2023-01-01T12:58:58;102457.16;;;20.19;37.76
6942;BME280;3510;43.200;27.920;2023-01-01T13:01:30;102451.56;;;20.60;37.32
6942;BME280;3510;43.200;27.920;2023-01-01T13:03:59;102415.38;;;20.67;36.03
6942;BME280;3510;43.200;27.920;2023-01-01T13:06:31;102442.38;;;21.77;34.11
6942;BME280;3510;43.200;27.920;2023-01-01T13:09:04;102431.09;;;21.73;34.10
6942;BME280;3510;43.200;27.920;2023-01-01T13:11:33;102464.91;;;21.81;34.18
6942;BME280;3510;43.200;27.920;2023-01-01T13:14:01;102468.34;;;21.81;34.65
6942;BME280;3510;43.200;27.920;2023-01-01T13:16:35;102414.38;;;21.40;34.41
6942;BME280;3510;43.200;27.920;2023-01-01T13:19:03;102465.84;;;21.31;34.99
6942;BME280;3510;43.200;27.920;2023-01-01T13:21:31;102438.63;;;21.20;35.03
6942;BME280;3510;43.200;27.920;2023-01-01T13:24:03;102431.94;;;20.72;35.18
6942;BME280;3510;43.200;27.920;2023-01-01T13:26:40;102436.06;;;20.95;35.84
6942;BME280;3510;43.200;27.920;2023-01-01T13:29:32;102457.47;;;20.59;37.21
6942;BME280;3510;43.200;27.920;2023-01-01T13:32:06;102453.47;;;20.50;37.79
6942;BME280;3510;43.200;27.920;2023-01-01T13:37:29;102457.25;;;20.44;38.42
6942;BME280;3510;43.200;27.920;2023-01-01T13:39:57;102455.66;;;20.46;38.48
6942;BME280;3510;43.200;27.920;2023-01-01T13:42:38;102453.50;;;20.75;37.73
6942;BME280;3510;43.200;27.920;2023-01-01T13:45:12;102453.88;;;20.93;37.41
6942;BME280;3510;43.200;27.920;2023-01-01T13:48:04;102433.66;;;20.60;37.82
6942;BME280;3510;43.200;27.920;2023-01-01T13:50:37;102454.19;;;20.73;37.89
6942;BME280;3510;43.200;27.920;2023-01-01T13:53:20;102457.53;;;20.97;37.11
6942;BME280;3510;43.200;27.920;2023-01-01T13:56:07;102465.28;;;20.25;37.66
6942;BME280;3510;43.200;27.920;2023-01-01T14:01:51;102442.03;;;19.87;37.96
6942;BME280;3510;43.200;27.920;2023-01-01T14:04:35;102463.59;;;19.90;38.27
6942;BME280;3510;43.200;27.920;2023-01-01T14:07:14;102462.16;;;19.94;38.34
6942;BME280;3510;43.200;27.920;2023-01-01T14:09:42;102433.72;;;19.77;38.51
6942;BME280;3510;43.200;27.920;2023-01-01T14:12:09;102460.25;;;20.62;38.00
6942;BME280;3510;43.200;27.920;2023-01-01T14:14:40;102457.31;;;20.69;37.66